sensor_id;sensor_type;location;lat;lon;timestamp;P1;P2;P0
46591;PMS6003;32314;48.748;9.656;2023-07-22T00:01:17;0.75;0.75;0.75
46591;PMS6003;32314;48.748;9.656;2023-07-22T00:04:09;1.00;1.00;1.00
46591;PMS6003;32314;48.748;9.656;2023-07-22T00:07:08;1.00;1.00;1.00
46591;PMS6003;32314;48.748;9.656;2023-07-22T00:13:03;0.00;0.00;0.00
46591;PMS6003;32314;48.748;9.656;2023-07-22T00:16:09;1.00;1.00;1.00
46591;PMS6003;32314;48.748;9.656;2023-07-22T00:18:56;0.25;0.25;0.00
46591;PMS6003;32314;48.748;9.656;2023-07-22T00:21:46;0.25;0.25;0.00
46591;PMS6003;32314;48.748;9.656;2023-07-22T00:24:34;1.00;1.00;1.00
46591;PMS6003;32314;48.748;9.656;2023-07-22T00:27:25;1.00;1.00;1.00
46591;PMS6003;32314;48.748;9.656;2023-07-22T00:30:14;0.50;0.50;0.50
46591;PMS6003;32314;48.748;9.656;2023-07-22T00:33:11;0.00;0.00;0.00
46591;PMS6003;32314;48.748;9.656;2023-07-22T00:36:06;0.50;0.50;0.50
46591;PMS6003;32314;48.748;9.656;2023-07-22T00:38:52;1.00;1.00;1.00
46591;PMS6003;32314;48.748;9.656;2023-07-22T00:41:46;1.00;1.00;1.00
46591;PMS6003;32314;48.748;9.656;2023-07-22T00:44:36;1.00;1.00;0.75
46591;PMS6003;32314;48.748;9.656;2023-07-22T00:47:25;1.00;1.00;1.00
46591;PMS6003;32314;48.748;9.656;2023-07-22T00:50:17;4.50;3.75;3.50
46591;PMS6003;32314;48.748;9.656;2023-07-22T00:53:10;3.00;3.00;1.00
46591;PMS6003;32314;48.748;9.656;2023-07-22T00:56:01;0.00;0.00;0.00
46591;PMS6003;32314;48.748;9.656;2023-07-22T00:58:59;0.00;0.00;0.00
46591;PMS6003;32314;48.748;9.656;2023-07-22T01:02:01;1.00;1.00;1.00
46591;PMS6003;32314;48.748;9.656;2023-07-22T01:04:58;0.00;0.00;0.00
46591;PMS6003;32314;48.748;9.656;2023-07-22T01:07:50;1.00;1.00;1.00
46591;PMS6003;32314;48.748;9.656;2023-07-22T01:11:00;1.00;1.00;1.00
46591;PMS6003;32314;48.748;9.656;2023-07-22T01:13:46;3.50;1.00;1.00
46591;PMS6003;32314;48.748;9.656;2023-07-22T01:16:33;0.00;0.00;0.00
46591;PMS6003;32314;48.748;9.656;2023-07-22T01:19:30;3.00;3.00;1.00
46591;PMS6003;32314;48.748;9.656;2023-07-22T01:22:22;0.00;0.00;0.00
46591;PMS6003;32314;48.748;9.656;2023-07-22T01:25:33;2.50;2.00;1.00
46591;PMS6003;32314;48.748;9.656;2023-07-22T01:28:25;1.00;1.00;1.00
46591;PMS6003;32314;48.748;9.656;2023-07-22T01:31:27;2.50;2.00;1.00
46591;PMS6003;32314;48.748;9.656;2023-07-22T01:34:23;2.25;0.00;0.00
46591;PMS6003;32314;48.748;9.656;2023-07-22T01:37:15;1.00;1.00;1.00
46591;PMS6003;32314;48.748;9.656;2023-07-22T01:40:10;0.75;0.75;0.50
46591;PMS6003;32314;48.748;9.656;2023-07-22T01:43:06;1.00;1.00;1.00
46591;PMS6003;32314;48.748;9.656;2023-07-22T01:45:52;1.50;1.50;1.00
46591;PMS6003;32314;48.748;9.656;2023-07-22T01:48:41;3.25;1.50;0.50
46591;PMS6003;32314;48.748;9.656;2023-07-22T01:51:32;0.67;0.67;0.00
46591;PMS6003;32314;48.748;9.656;2023-07-22T01:54:26;1.00;1.00;1.00
46591;PMS6003;32314;48.748;9.656;2023-07-22T01:57:18;2.00;2.00;1.00
46591;PMS6003;32314;48.748;9.656;2023-07-22T02:00:04;3.33;0.67;0.67
46591;PMS6003;32314;48.748;9.656;2023-07-22T02:02:58;1.50;0.00;0.00
46591;PMS6003;32314;48.748;9.656;2023-07-22T02:05:44;1.00;0.00;0.00
46591;PMS6003;32314;48.748;9.656;2023-07-22T02:08:35;3.67;1.00;1.00
46591;PMS6003;32314;48.748;9.656;2023-07-22T02:11:31;3.00;3.00;0.33
46591;PMS6003;32314;48.748;9.656;2023-07-22T02:14:23;1.00;1.00;0.67
46591;PMS6003;32314;48.748;9.656;2023-07-22T02:17:11;1.00;1.00;0.67
46591;PMS6003;32314;48.748;9.656;2023-07-22T02:20:00;1.00;1.00;1.00
46591;PMS6003;32314;48.748;9.656;2023-07-22T02:22:50;3.00;1.00;1.00
46591;PMS6003;32314;48.748;9.656;2023-07-22T02:25:43;0.00;0.00;0.00
46591;PMS6003;32314;48.748;9.656;2023-07-22T02:28:35;3.67;1.00;1.00
46591;PMS6003;32314;48.748;9.656;2023-07-22T02:31:35;1.00;1.00;0.67
46591;PMS6003;32314;48.748;9.656;2023-07-22T02:34:21;2.33;2.33;1.67
46591;PMS6003;32314;48.748;9.656;2023-07-22T02:37:07;3.33;1.00;1.00
46591;PMS6003;32314;48.748;9.656;2023-07-22T02:39:58;1.00;1.00;1.00
46591;PMS6003;32314;48.748;9.656;2023-07-22T02:42:47;1.00;1.00;1.00
46591;PMS6003;32314;48.748;9.656;2023-07-22T02:45:34;2.33;2.33;2.33
46591;PMS6003;32314;48.748;9.656;2023-07-22T02:48:23;3.00;3.00;1.00
46591;PMS6003;32314;48.748;9.656;2023-07-22T02:51:18;0.00;0.00;0.00
46591;PMS6003;32314;48.748;9.656;2023-07-22T02:54:09;1.00;1.00;1.00
46591;PMS6003;32314;48.748;9.656;2023-07-22T02:57:02;0.33;0.33;0.00
46591;PMS6003;32314;48.748;9.656;2023-07-22T02:59:51;1.00;1.00;1.00
46591;PMS6003;32314;48.748;9.656;2023-07-22T03:02:45;1.00;1.00;1.00
46591;PMS6003;32314;48.748;9.656;2023-07-22T03:05:34;1.67;1.67;1.00
46591;PMS6003;32314;48.748;9.656;2023-07-22T03:08:25;1.00;1.00;1.00
46591;PMS6003;32314;48.748;9.656;2023-07-22T03:11:14;0.67;0.67;0.67
46591;PMS6003;32314;48.748;9.656;2023-07-22T03:14:00;0.00;0.00;0.00
46591;PMS6003;32314;48.748;9.656;2023-07-22T03:16:47;1.00;1.00;0.00
46591;PMS6003;32314;48.748;9.656;2023-07-22T03:19:33;3.00;0.67;0.00
46591;PMS6003;32314;48.748;9.656;2023-07-22T03:22:21;0.33;0.33;0.33
46591;PMS6003;32314;48.748;9.656;2023-07-22T03:25:10;0.00;0.00;0.00
46591;PMS6003;32314;48.748;9.656;2023-07-22T03:27:57;0.00;0.00;0.00
46591;PMS6003;32314;48.748;9.656;2023-07-22T03:30:45;1.00;1.00;0.00
46591;PMS6003;32314;48.748;9.656;2023-07-22T03:33:31;1.00;1.00;1.00
46591;PMS6003;32314;48.748;9.656;2023-07-22T03:36:17;1.00;1.00;0.00
46591;PMS6003;32314;48.748;9.656;2023-07-22T03:39:02;1.67;1.00;0.67
46591;PMS6003;32314;48.748;9.656;2023-07-22T03:41:48;0.33;0.33;0.00
46591;PMS6003;32314;48.748;9.656;2023-07-22T03:44:34;0.00;0.00;0.00
46591;PMS6003;32314;48.748;9.656;2023-07-22T03:47:20;0.00;0.00;0.00
46591;PMS6003;32314;48.748;9.656;2023-07-22T03:50:06;3.00;1.00;1.00
46591;PMS6003;32314;48.748;9.656;2023-07-22T03:52:53;4.00;1.00;1.00
46591;PMS6003;32314;48.748;9.656;2023-07-22T03:55:39;0.00;0.00;0.00
46591;PMS6003;32314;48.748;9.656;2023-07-22T03:58:24;1.00;1.00;1.00
46591;PMS6003;32314;48.748;9.656;2023-07-22T04:01:11;3.00;0.00;0.00
46591;PMS6003;32314;48.748;9.656;2023-07-22T04:03:57;1.00;1.00;0.33
46591;PMS6003;32314;48.748;9.656;2023-07-22T04:06:42;1.67;1.67;1.00
46591;PMS6003;32314;48.748;9.656;2023-07-22T04:09:28;4.00;2.33;1.00
46591;PMS6003;32314;48.748;9.656;2023-07-22T04:12:14;3.67;1.00;1.00
46591;PMS6003;32314;48.748;9.656;2023-07-22T04:15:00;4.00;1.00;1.00
46591;PMS6003;32314;48.748;9.656;2023-07-22T04:17:47;1.00;1.00;1.00
46591;PMS6003;32314;48.748;9.656;2023-07-22T04:20:36;1.67;1.67;1.00
46591;PMS6003;32314;48.748;9.656;2023-07-22T04:23:22;1.00;1.00;1.00
46591;PMS6003;32314;48.748;9.656;2023-07-22T04:26:08;0.33;0.33;0.33
46591;PMS6003;32314;48.748;9.656;2023-07-22T04:28:54;1.00;1.00;1.00
46591;PMS6003;32314;48.748;9.656;2023-07-22T04:31:40;1.00;1.00;0.67
46591;PMS6003;32314;48.748;9.656;2023-07-22T04:34:32;0.00;0.00;0.00
46591;PMS6003;32314;48.748;9.656;2023-07-22T04:37:18;2.00;1.00;1.00
46591;PMS6003;32314;48.748;9.656;2023-07-22T04:40:04;1.00;1.00;0.33
46591;PMS6003;32314;48.748;9.656;2023-07-22T04:42:51;0.67;0.67;0.00
46591;PMS6003;32314;48.748;9.656;2023-07-22T04:45:37;3.00;3.00;1.67
46591;PMS6003;32314;48.748;9.656;2023-07-22T04:48:25;1.00;1.00;0.33
46591;PMS6003;32314;48.748;9.656;2023-07-22T04:51:11;1.67;1.67;1.00
46591;PMS6003;32314;48.748;9.656;2023-07-22T04:53:57;1.75;1.00;1.00
46591;PMS6003;32314;48.748;9.656;2023-07-22T04:56:43;2.33;2.33;1.67
46591;PMS6003;32314;48.748;9.656;2023-07-22T04:59:29;1.00;1.00;1.00
46591;PMS6003;32314;48.748;9.656;2023-07-22T05:02:15;3.00;3.00;3.00
46591;PMS6003;32314;48.748;9.656;2023-07-22T05:05:01;5.50;2.50;2.50
46591;PMS6003;32314;48.748;9.656;2023-07-22T05:07:46;3.00;1.00;1.00
46591;PMS6003;32314;48.748;9.656;2023-07-22T05:10:34;3.00;3.00;2.00
46591;PMS6003;32314;48.748;9.656;2023-07-22T05:13:20;1.00;1.00;1.00
46591;PMS6003;32314;48.748;9.656;2023-07-22T05:16:06;1.00;1.00;1.00
46591;PMS6003;32314;48.748;9.656;2023-07-22T05:18:52;3.25;3.25;2.50
46591;PMS6003;32314;48.748;9.656;2023-07-22T05:21:37;1.50;1.50;1.00
46591;PMS6003;32314;48.748;9.656;2023-07-22T05:24:23;1.00;1.00;1.00
46591;PMS6003;32314;48.748;9.656;2023-07-22T05:27:09;3.75;3.25;3.00
46591;PMS6003;32314;48.748;9.656;2023-07-22T05:29:55;1.00;1.00;1.00
46591;PMS6003;32314;48.748;9.656;2023-07-22T05:32:40;1.00;1.00;1.00
46591;PMS6003;32314;48.748;9.656;2023-07-22T05:35:26;1.00;1.00;0.75
46591;PMS6003;32314;48.748;9.656;2023-07-22T05:38:12;3.75;3.75;3.00
46591;PMS6003;32314;48.748;9.656;2023-07-22T05:40:58;3.50;3.50;3.00
46591;PMS6003;32314;48.748;9.656;2023-07-22T05:43:44;3.25;1.00;1.00
46591;PMS6003;32314;48.748;9.656;2023-07-22T05:46:30;3.00;3.00;1.50
46591;PMS6003;32314;48.748;9.656;2023-07-22T05:49:18;1.50;1.50;1.00
46591;PMS6003;32314;48.748;9.656;2023-07-22T05:52:04;0.00;0.00;0.00
46591;PMS6003;32314;48.748;9.656;2023-07-22T05:54:51;3.00;3.00;3.00
46591;PMS6003;32314;48.748;9.656;2023-07-22T05:57:37;3.00;3.00;2.00
46591;PMS6003;32314;48.748;9.656;2023-07-22T06:00:23;1.50;1.50;1.00
46591;PMS6003;32314;48.748;9.656;2023-07-22T06:03:08;4.00;4.00;3.50
46591;PMS6003;32314;48.748;9.656;2023-07-22T06:05:54;3.00;3.00;2.00
46591;PMS6003;32314;48.748;9.656;2023-07-22T06:08:40;3.75;2.00;1.00
46591;PMS6003;32314;48.748;9.656;2023-07-22T06:11:27;4.00;4.00;1.00
46591;PMS6003;32314;48.748;9.656;2023-07-22T06:14:14;3.75;3.75;3.25
46591;PMS6003;32314;48.748;9.656;2023-07-22T06:17:02;2.00;2.00;2.00
46591;PMS6003;32314;48.748;9.656;2023-07-22T06:19:49;5.00;3.00;3.00
46591;PMS6003;32314;48.748;9.656;2023-07-22T06:22:35;3.00;3.00;3.00
46591;PMS6003;32314;48.748;9.656;2023-07-22T06:25:21;5.50;3.00;3.00
46591;PMS6003;32314;48.748;9.656;2023-07-22T06:28:06;1.25;1.25;1.25
46591;PMS6003;32314;48.748;9.656;2023-07-22T06:30:52;1.00;1.00;1.00
46591;PMS6003;32314;48.748;9.656;2023-07-22T06:33:40;1.00;1.00;1.00
46591;PMS6003;32314;48.748;9.656;2023-07-22T06:36:26;2.00;2.00;2.00
46591;PMS6003;32314;48.748;9.656;2023-07-22T06:39:12;1.25;1.25;1.25
46591;PMS6003;32314;48.748;9.656;2023-07-22T06:41:58;4.25;2.00;2.00
46591;PMS6003;32314;48.748;9.656;2023-07-22T06:44:44;5.25;2.25;2.25
46591;PMS6003;32314;48.748;9.656;2023-07-22T06:47:30;2.25;2.25;2.25
46591;PMS6003;32314;48.748;9.656;2023-07-22T06:50:16;6.00;5.50;5.50
46591;PMS6003;32314;48.748;9.656;2023-07-22T06:53:02;5.75;5.75;4.75
46591;PMS6003;32314;48.748;9.656;2023-07-22T06:55:51;5.50;5.50;4.75
46591;PMS6003;32314;48.748;9.656;2023-07-22T06:58:43;5.00;5.00;4.00
46591;PMS6003;32314;48.748;9.656;2023-07-22T07:01:29;7.00;7.00;5.75
46591;PMS6003;32314;48.748;9.656;2023-07-22T07:04:15;6.25;6.25;6.00
46591;PMS6003;32314;48.748;9.656;2023-07-22T07:07:01;7.00;6.00;4.25
46591;PMS6003;32314;48.748;9.656;2023-07-22T07:09:48;5.00;5.00;5.00
46591;PMS6003;32314;48.748;9.656;2023-07-22T07:12:34;5.00;5.00;4.50
46591;PMS6003;32314;48.748;9.656;2023-07-22T07:15:19;7.00;5.25;4.75
46591;PMS6003;32314;48.748;9.656;2023-07-22T07:18:05;4.50;4.50;4.00
46591;PMS6003;32314;48.748;9.656;2023-07-22T07:20:51;6.75;4.50;4.50
46591;PMS6003;32314;48.748;9.656;2023-07-22T07:23:38;5.00;3.75;3.75
46591;PMS6003;32314;48.748;9.656;2023-07-22T07:26:24;3.50;3.50;3.00
46591;PMS6003;32314;48.748;9.656;2023-07-22T07:29:10;4.00;4.00;3.25
46591;PMS6003;32314;48.748;9.656;2023-07-22T07:31:56;3.00;3.00;3.00
46591;PMS6003;32314;48.748;9.656;2023-07-22T07:34:42;4.75;4.50;4.00
46591;PMS6003;32314;48.748;9.656;2023-07-22T07:37:28;3.00;3.00;3.00
46591;PMS6003;32314;48.748;9.656;2023-07-22T07:40:17;1.50;1.50;1.50
46591;PMS6003;32314;48.748;9.656;2023-07-22T07:43:03;3.25;2.75;2.00
46591;PMS6003;32314;48.748;9.656;2023-07-22T07:45:49;3.00;3.00;3.00
46591;PMS6003;32314;48.748;9.656;2023-07-22T07:48:35;3.50;3.50;3.00
46591;PMS6003;32314;48.748;9.656;2023-07-22T07:51:21;3.50;3.50;2.75
46591;PMS6003;32314;48.748;9.656;2023-07-22T07:54:08;5.00;5.00;4.00
46591;PMS6003;32314;48.748;9.656;2023-07-22T07:56:54;3.00;3.00;3.00
46591;PMS6003;32314;48.748;9.656;2023-07-22T07:59:40;3.00;3.00;3.00
46591;PMS6003;32314;48.748;9.656;2023-07-22T08:02:26;4.50;4.25;3.00
46591;PMS6003;32314;48.748;9.656;2023-07-22T08:05:12;2.75;2.75;2.50
46591;PMS6003;32314;48.748;9.656;2023-07-22T08:07:58;3.25;3.25;3.00
46591;PMS6003;32314;48.748;9.656;2023-07-22T08:10:43;2.75;2.75;2.50
46591;PMS6003;32314;48.748;9.656;2023-07-22T08:13:30;3.00;3.00;3.00
46591;PMS6003;32314;48.748;9.656;2023-07-22T08:16:17;3.75;3.75;2.75
46591;PMS6003;32314;48.748;9.656;2023-07-22T08:19:03;3.75;3.75;2.00
46591;PMS6003;32314;48.748;9.656;2023-07-22T08:21:49;3.75;3.75;3.00
46591;PMS6003;32314;48.748;9.656;2023-07-22T08:24:37;3.25;3.25;3.00
46591;PMS6003;32314;48.748;9.656;2023-07-22T08:27:23;5.00;3.00;3.00
46591;PMS6003;32314;48.748;9.656;2023-07-22T08:30:09;1.75;0.00;0.00
46591;PMS6003;32314;48.748;9.656;2023-07-22T08:32:55;3.50;3.50;3.25
46591;PMS6003;32314;48.748;9.656;2023-07-22T08:35:41;3.50;3.25;3.00
46591;PMS6003;32314;48.748;9.656;2023-07-22T08:38:28;3.75;3.75;3.00
46591;PMS6003;32314;48.748;9.656;2023-07-22T08:41:17;1.50;1.50;1.50
46591;PMS6003;32314;48.748;9.656;2023-07-22T08:44:12;3.00;3.00;3.00
46591;PMS6003;32314;48.748;9.656;2023-07-22T08:46:59;3.25;3.25;3.00
46591;PMS6003;32314;48.748;9.656;2023-07-22T08:49:46;2.25;2.25;2.25
46591;PMS6003;32314;48.748;9.656;2023-07-22T08:52:38;1.75;1.75;1.50
46591;PMS6003;32314;48.748;9.656;2023-07-22T08:55:27;3.50;3.00;2.25
46591;PMS6003;32314;48.748;9.656;2023-07-22T08:58:14;2.25;2.00;2.00
46591;PMS6003;32314;48.748;9.656;2023-07-22T09:00:59;2.00;2.00;2.00
46591;PMS6003;32314;48.748;9.656;2023-07-22T09:03:46;2.50;2.50;2.50
46591;PMS6003;32314;48.748;9.656;2023-07-22T09:06:33;2.00;2.00;1.50
46591;PMS6003;32314;48.748;9.656;2023-07-22T09:09:19;4.00;4.00;4.00
46591;PMS6003;32314;48.748;9.656;2023-07-22T09:12:07;2.00;2.00;2.00
46591;PMS6003;32314;48.748;9.656;2023-07-22T09:14:53;1.50;1.50;1.00
46591;PMS6003;32314;48.748;9.656;2023-07-22T09:17:42;1.25;1.25;1.25
46591;PMS6003;32314;48.748;9.656;2023-07-22T09:20:35;2.00;1.25;1.25
46591;PMS6003;32314;48.748;9.656;2023-07-22T09:23:37;1.25;1.25;1.25
46591;PMS6003;32314;48.748;9.656;2023-07-22T09:26:26;3.00;2.00;1.50
46591;PMS6003;32314;48.748;9.656;2023-07-22T09:29:12;1.33;1.33;1.33
46591;PMS6003;32314;48.748;9.656;2023-07-22T09:31:58;1.33;1.33;1.33
46591;PMS6003;32314;48.748;9.656;2023-07-22T09:34:56;1.67;1.67;1.33
46591;PMS6003;32314;48.748;9.656;2023-07-22T09:37:43;1.00;1.00;0.33
46591;PMS6003;32314;48.748;9.656;2023-07-22T09:40:29;2.00;2.00;1.00
46591;PMS6003;32314;48.748;9.656;2023-07-22T09:43:15;0.00;0.00;0.00
46591;PMS6003;32314;48.748;9.656;2023-07-22T09:46:07;2.00;2.00;1.00
46591;PMS6003;32314;48.748;9.656;2023-07-22T09:48:54;1.00;1.00;1.00
46591;PMS6003;32314;48.748;9.656;2023-07-22T09:51:40;2.00;2.00;2.00
46591;PMS6003;32314;48.748;9.656;2023-07-22T09:54:26;1.00;1.00;1.00
46591;PMS6003;32314;48.748;9.656;2023-07-22T09:57:18;3.00;1.00;1.00
46591;PMS6003;32314;48.748;9.656;2023-07-22T10:00:04;2.00;2.00;1.00
46591;PMS6003;32314;48.748;9.656;2023-07-22T10:02:58;2.33;2.33;2.00
46591;PMS6003;32314;48.748;9.656;2023-07-22T10:05:56;0.33;0.33;0.33
46591;PMS6003;32314;48.748;9.656;2023-07-22T10:08:48;1.00;1.00;1.00
46591;PMS6003;32314;48.748;9.656;2023-07-22T10:11:55;1.33;1.33;1.33
46591;PMS6003;32314;48.748;9.656;2023-07-22T10:14:43;2.00;2.00;2.00
46591;PMS6003;32314;48.748;9.656;2023-07-22T10:17:30;2.00;2.00;2.00
46591;PMS6003;32314;48.748;9.656;2023-07-22T10:20:16;2.00;2.00;2.00
46591;PMS6003;32314;48.748;9.656;2023-07-22T10:23:07;1.67;1.67;1.33
46591;PMS6003;32314;48.748;9.656;2023-07-22T10:25:59;1.67;1.67;1.00
46591;PMS6003;32314;48.748;9.656;2023-07-22T10:28:45;1.00;1.00;1.00
46591;PMS6003;32314;48.748;9.656;2023-07-22T10:31:32;1.50;1.50;1.25
46591;PMS6003;32314;48.748;9.656;2023-07-22T10:34:20;1.00;1.00;1.00
46591;PMS6003;32314;48.748;9.656;2023-07-22T10:37:08;2.00;1.00;1.00
46591;PMS6003;32314;48.748;9.656;2023-07-22T10:39:58;1.25;1.25;1.00
46591;PMS6003;32314;48.748;9.656;2023-07-22T10:43:05;1.75;1.75;1.75
46591;PMS6003;32314;48.748;9.656;2023-07-22T10:45:53;1.75;1.00;1.00
46591;PMS6003;32314;48.748;9.656;2023-07-22T10:48:40;0.00;0.00;0.00
46591;PMS6003;32314;48.748;9.656;2023-07-22T10:51:27;1.00;1.00;0.33
46591;PMS6003;32314;48.748;9.656;2023-07-22T10:54:34;2.00;2.00;1.00
46591;PMS6003;32314;48.748;9.656;2023-07-22T10:57:23;0.67;0.67;0.67
46591;PMS6003;32314;48.748;9.656;2023-07-22T11:00:17;2.33;0.67;0.67
46591;PMS6003;32314;48.748;9.656;2023-07-22T11:03:11;1.67;1.67;1.33
46591;PMS6003;32314;48.748;9.656;2023-07-22T11:06:00;1.33;1.33;1.00
46591;PMS6003;32314;48.748;9.656;2023-07-22T11:08:46;1.00;1.00;1.00
46591;PMS6003;32314;48.748;9.656;2023-07-22T11:11:44;3.00;1.67;1.33
46591;PMS6003;32314;48.748;9.656;2023-07-22T11:17:31;1.33;1.33;1.00
46591;PMS6003;32314;48.748;9.656;2023-07-22T11:20:17;1.00;1.00;0.67
46591;PMS6003;32314;48.748;9.656;2023-07-22T11:23:03;1.00;1.00;1.00
46591;PMS6003;32314;48.748;9.656;2023-07-22T11:25:49;2.00;2.00;1.00
46591;PMS6003;32314;48.748;9.656;2023-07-22T11:28:35;0.33;0.33;0.33
46591;PMS6003;32314;48.748;9.656;2023-07-22T11:31:21;2.00;2.00;2.00
46591;PMS6003;32314;48.748;9.656;2023-07-22T11:34:06;1.00;1.00;1.00
46591;PMS6003;32314;48.748;9.656;2023-07-22T11:36:53;2.33;2.00;2.00
46591;PMS6003;32314;48.748;9.656;2023-07-22T11:39:40;2.00;2.00;1.00
46591;PMS6003;32314;48.748;9.656;2023-07-22T11:42:27;1.00;1.00;1.00
46591;PMS6003;32314;48.748;9.656;2023-07-22T11:45:13;2.00;1.00;1.00
46591;PMS6003;32314;48.748;9.656;2023-07-22T11:48:00;1.00;1.00;0.00
46591;PMS6003;32314;48.748;9.656;2023-07-22T11:50:46;1.00;1.00;1.00
46591;PMS6003;32314;48.748;9.656;2023-07-22T11:53:32;1.00;1.00;1.00
46591;PMS6003;32314;48.748;9.656;2023-07-22T11:56:21;2.00;1.00;1.00
46591;PMS6003;32314;48.748;9.656;2023-07-22T11:59:08;0.75;0.75;0.75
46591;PMS6003;32314;48.748;9.656;2023-07-22T12:01:54;1.75;0.00;0.00
46591;PMS6003;32314;48.748;9.656;2023-07-22T12:04:55;1.00;1.00;1.00
46591;PMS6003;32314;48.748;9.656;2023-07-22T12:07:47;1.00;1.00;1.00
46591;PMS6003;32314;48.748;9.656;2023-07-22T12:10:39;1.00;1.00;0.75
46591;PMS6003;32314;48.748;9.656;2023-07-22T12:13:36;1.00;1.00;1.00
46591;PMS6003;32314;48.748;9.656;2023-07-22T12:16:22;0.00;0.00;0.00
46591;PMS6003;32314;48.748;9.656;2023-07-22T12:19:14;0.00;0.00;0.00
46591;PMS6003;32314;48.748;9.656;2023-07-22T12:22:00;1.75;0.00;0.00
46591;PMS6003;32314;48.748;9.656;2023-07-22T12:24:47;1.00;1.00;1.00
46591;PMS6003;32314;48.748;9.656;2023-07-22T12:27:33;1.00;1.00;1.00
46591;PMS6003;32314;48.748;9.656;2023-07-22T12:30:19;0.00;0.00;0.00
46591;PMS6003;32314;48.748;9.656;2023-07-22T12:33:05;0.50;0.50;0.00
46591;PMS6003;32314;48.748;9.656;2023-07-22T12:35:55;0.00;0.00;0.00
46591;PMS6003;32314;48.748;9.656;2023-07-22T12:38:44;0.25;0.25;0.00
46591;PMS6003;32314;48.748;9.656;2023-07-22T12:41:31;2.75;2.00;2.00
46591;PMS6003;32314;48.748;9.656;2023-07-22T12:44:19;1.00;1.00;1.00
46591;PMS6003;32314;48.748;9.656;2023-07-22T12:47:24;1.00;1.00;1.00
46591;PMS6003;32314;48.748;9.656;2023-07-22T12:50:10;2.00;1.50;1.25
46591;PMS6003;32314;48.748;9.656;2023-07-22T12:53:01;1.25;1.25;1.00
46591;PMS6003;32314;48.748;9.656;2023-07-22T12:55:51;1.50;1.50;1.50
46591;PMS6003;32314;48.748;9.656;2023-07-22T12:58:48;1.00;1.00;1.00
46591;PMS6003;32314;48.748;9.656;2023-07-22T13:01:36;2.50;1.75;1.25
46591;PMS6003;32314;48.748;9.656;2023-07-22T13:04:27;1.00;1.00;1.00
46591;PMS6003;32314;48.748;9.656;2023-07-22T13:07:13;1.00;1.00;0.75
46591;PMS6003;32314;48.748;9.656;2023-07-22T13:09:59;1.75;1.75;1.75
46591;PMS6003;32314;48.748;9.656;2023-07-22T13:12:51;1.50;1.50;1.50
46591;PMS6003;32314;48.748;9.656;2023-07-22T13:15:42;1.00;1.00;1.00
46591;PMS6003;32314;48.748;9.656;2023-07-22T13:18:30;1.50;1.50;1.00
46591;PMS6003;32314;48.748;9.656;2023-07-22T13:21:20;1.00;1.00;1.00
46591;PMS6003;32314;48.748;9.656;2023-07-22T13:24:11;1.75;1.75;1.75
46591;PMS6003;32314;48.748;9.656;2023-07-22T13:26:59;2.00;2.00;2.00
46591;PMS6003;32314;48.748;9.656;2023-07-22T13:29:45;2.00;2.00;1.50
46591;PMS6003;32314;48.748;9.656;2023-07-22T13:32:34;2.50;2.00;1.00
46591;PMS6003;32314;48.748;9.656;2023-07-22T13:35:23;0.00;0.00;0.00
46591;PMS6003;32314;48.748;9.656;2023-07-22T13:38:11;3.25;1.50;1.50
46591;PMS6003;32314;48.748;9.656;2023-07-22T13:40:57;2.75;1.00;1.00
46591;PMS6003;32314;48.748;9.656;2023-07-22T13:43:43;2.00;2.00;1.00
46591;PMS6003;32314;48.748;9.656;2023-07-22T13:46:29;1.25;1.25;1.25
46591;PMS6003;32314;48.748;9.656;2023-07-22T13:49:17;2.00;2.00;1.00
46591;PMS6003;32314;48.748;9.656;2023-07-22T13:52:06;1.00;1.00;0.00
46591;PMS6003;32314;48.748;9.656;2023-07-22T13:54:52;1.00;1.00;1.00
46591;PMS6003;32314;48.748;9.656;2023-07-22T13:57:38;1.75;0.75;0.75
46591;PMS6003;32314;48.748;9.656;2023-07-22T14:00:24;1.00;1.00;1.00
46591;PMS6003;32314;48.748;9.656;2023-07-22T14:03:09;1.75;1.75;1.75
46591;PMS6003;32314;48.748;9.656;2023-07-22T14:05:56;1.00;1.00;1.00
46591;PMS6003;32314;48.748;9.656;2023-07-22T14:08:42;1.00;1.00;0.75
46591;PMS6003;32314;48.748;9.656;2023-07-22T14:11:28;1.50;1.50;1.00
46591;PMS6003;32314;48.748;9.656;2023-07-22T14:14:13;1.25;1.25;1.00
46591;PMS6003;32314;48.748;9.656;2023-07-22T14:16:59;3.75;2.50;1.75
46591;PMS6003;32314;48.748;9.656;2023-07-22T14:19:45;2.50;2.00;2.00
46591;PMS6003;32314;48.748;9.656;2023-07-22T14:22:31;1.50;1.00;1.00
46591;PMS6003;32314;48.748;9.656;2023-07-22T14:25:17;2.00;2.00;1.50
46591;PMS6003;32314;48.748;9.656;2023-07-22T14:28:04;2.75;2.75;2.00
46591;PMS6003;32314;48.748;9.656;2023-07-22T14:30:50;2.25;2.25;1.75
46591;PMS6003;32314;48.748;9.656;2023-07-22T14:33:35;4.00;2.25;1.25
46591;PMS6003;32314;48.748;9.656;2023-07-22T14:36:21;0.75;0.75;0.75
46591;PMS6003;32314;48.748;9.656;2023-07-22T14:39:07;2.00;2.00;2.00
46591;PMS6003;32314;48.748;9.656;2023-07-22T14:41:53;2.75;2.75;2.00
46591;PMS6003;32314;48.748;9.656;2023-07-22T14:44:39;2.75;2.75;2.25
46591;PMS6003;32314;48.748;9.656;2023-07-22T14:47:25;1.25;1.25;1.00
46591;PMS6003;32314;48.748;9.656;2023-07-22T14:50:11;3.00;3.00;3.00
46591;PMS6003;32314;48.748;9.656;2023-07-22T14:52:57;2.75;2.75;2.50
46591;PMS6003;32314;48.748;9.656;2023-07-22T14:55:44;2.00;2.00;2.00
46591;PMS6003;32314;48.748;9.656;2023-07-22T14:58:30;1.75;1.75;1.75
46591;PMS6003;32314;48.748;9.656;2023-07-22T15:01:16;2.00;2.00;1.00
46591;PMS6003;32314;48.748;9.656;2023-07-22T15:04:02;2.00;2.00;1.25
46591;PMS6003;32314;48.748;9.656;2023-07-22T15:06:47;3.75;3.00;2.25
46591;PMS6003;32314;48.748;9.656;2023-07-22T15:09:33;2.00;2.00;2.00
46591;PMS6003;32314;48.748;9.656;2023-07-22T15:12:32;3.00;3.00;2.00
46591;PMS6003;32314;48.748;9.656;2023-07-22T15:15:18;3.00;3.00;2.00
46591;PMS6003;32314;48.748;9.656;2023-07-22T15:18:04;3.00;3.00;2.00
46591;PMS6003;32314;48.748;9.656;2023-07-22T15:20:53;2.25;2.25;2.00
46591;PMS6003;32314;48.748;9.656;2023-07-22T15:23:38;2.00;2.00;1.75
46591;PMS6003;32314;48.748;9.656;2023-07-22T15:26:24;3.00;3.00;3.00
46591;PMS6003;32314;48.748;9.656;2023-07-22T15:29:13;3.00;2.75;2.25
46591;PMS6003;32314;48.748;9.656;2023-07-22T15:32:06;3.00;3.00;2.50
46591;PMS6003;32314;48.748;9.656;2023-07-22T15:34:55;3.00;2.75;1.75
46591;PMS6003;32314;48.748;9.656;2023-07-22T15:38:07;5.25;3.50;2.75
46591;PMS6003;32314;48.748;9.656;2023-07-22T15:40:53;3.50;3.50;3.25
46591;PMS6003;32314;48.748;9.656;2023-07-22T15:43:42;4.00;4.00;3.00
46591;PMS6003;32314;48.748;9.656;2023-07-22T15:46:28;3.00;3.00;2.50
46591;PMS6003;32314;48.748;9.656;2023-07-22T15:49:13;2.67;2.67;2.33
46591;PMS6003;32314;48.748;9.656;2023-07-22T15:51:59;4.00;3.00;2.00
46591;PMS6003;32314;48.748;9.656;2023-07-22T15:54:45;2.50;2.50;2.00
46591;PMS6003;32314;48.748;9.656;2023-07-22T15:57:31;3.00;3.00;2.00
46591;PMS6003;32314;48.748;9.656;2023-07-22T16:00:17;3.00;3.00;2.00
46591;PMS6003;32314;48.748;9.656;2023-07-22T16:03:03;3.00;3.00;3.00
46591;PMS6003;32314;48.748;9.656;2023-07-22T16:05:51;2.00;2.00;1.00
46591;PMS6003;32314;48.748;9.656;2023-07-22T16:08:37;3.50;3.50;2.75
46591;PMS6003;32314;48.748;9.656;2023-07-22T16:11:23;2.67;2.67;2.00
46591;PMS6003;32314;48.748;9.656;2023-07-22T16:14:09;4.00;2.00;2.00
46591;PMS6003;32314;48.748;9.656;2023-07-22T16:16:55;3.67;3.67;3.00
46591;PMS6003;32314;48.748;9.656;2023-07-22T16:19:41;2.00;2.00;2.00
46591;PMS6003;32314;48.748;9.656;2023-07-22T16:22:26;2.67;2.67;2.00
46591;PMS6003;32314;48.748;9.656;2023-07-22T16:25:12;1.33;1.33;1.00
46591;PMS6003;32314;48.748;9.656;2023-07-22T16:27:58;2.67;2.67;2.33
46591;PMS6003;32314;48.748;9.656;2023-07-22T16:30:44;3.00;3.00;2.00
46591;PMS6003;32314;48.748;9.656;2023-07-22T16:33:30;4.00;4.00;2.00